Time;durP1;ratioP1;P1;durP2;ratioP2;P2;SDS_P1;SDS_P2;PMS_P1;PMS_P2;Temp;Humidity;BMP_temperature;BMP_pressure;BME280_temperature;BME280_humidity;BME280_pressure;Samples;Min_cycle;Max_cycle;Signal;HPM_P1;HPM_P2
2024/01/10 00:01:37;;;;;;;0.60;0.60;;;-4.90;99.90;;;;;;5021917;28;20200;-82
2024/01/10 00:04:04;;;;;;;1.10;1.10;;;-5.00;99.90;;;;;;5024306;28;20207;-82
2024/01/10 00:06:30;;;;;;;1.08;0.93;;;-5.00;99.90;;;;;;5026139;28;20595;-83
2024/01/10 00:08:58;;;;;;;1.48;1.38;;;-5.00;99.90;;;;;;5023337;28;20196;-83
2024/01/10 00:11:25;;;;;;;3.80;1.50;;;-5.00;99.90;;;;;;5021807;28;20203;-82
2024/01/10 00:13:52;;;;;;;0.70;0.70;;;-5.00;99.90;;;;;;5022091;28;20583;-83
2024/01/10 00:16:19;;;;;;;0.50;0.50;;;-5.00;99.90;;;;;;5024989;28;20243;-82
2024/01/10 00:18:45;;;;;;;0.50;0.50;;;-5.10;99.90;;;;;;5024494;28;20222;-83
2024/01/10 00:21:12;;;;;;;0.60;0.60;;;-5.10;99.90;;;;;;5021578;28;20196;-82
2024/01/10 00:23:39;;;;;;;0.50;0.50;;;-5.10;99.90;;;;;;5028695;28;20195;-83
2024/01/10 00:26:07;;;;;;;0.50;0.50;;;-5.10;99.90;;;;;;5022316;28;20611;-81
2024/01/10 00:28:34;;;;;;;0.93;0.93;;;-5.10;99.90;;;;;;5020761;28;20204;-82
2024/01/10 00:31:00;;;;;;;0.50;0.50;;;-5.10;99.90;;;;;;5022855;28;20292;-83
2024/01/10 00:33:27;;;;;;;0.50;0.50;;;-5.20;99.90;;;;;;5024745;28;20192;-83
2024/01/10 00:35:54;;;;;;;0.98;0.98;;;-5.20;99.90;;;;;;5016686;28;20700;-83
2024/01/10 00:38:21;;;;;;;0.50;0.50;;;-5.20;99.90;;;;;;5024168;28;20223;-83
2024/01/10 00:40:47;;;;;;;0.50;0.50;;;-5.20;99.90;;;;;;5024149;28;20192;-82
2024/01/10 00:43:15;;;;;;;0.50;0.50;;;-5.10;99.90;;;;;;5024091;28;20196;-83
2024/01/10 00:45:42;;;;;;;0.50;0.47;;;-5.10;99.90;;;;;;5024490;28;20211;-82
2024/01/10 00:48:09;;;;;;;0.50;0.50;;;-5.10;99.90;;;;;;5021529;28;20202;-83
2024/01/10 00:50:36;;;;;;;0.50;0.50;;;-5.10;99.90;;;;;;5012898;28;20580;-82
2024/01/10 00:53:03;;;;;;;0.50;0.50;;;-5.10;99.90;;;;;;5022382;28;20203;-83
2024/01/10 00:55:29;;;;;;;0.50;0.50;;;-5.10;99.90;;;;;;5024266;28;20227;-83
2024/01/10 00:57:56;;;;;;;0.50;0.50;;;-5.20;99.90;;;;;;5023019;28;20223;-82
2024/01/10 01:00:24;;;;;;;0.50;0.40;;;-5.20;99.90;;;;;;5020686;28;20664;-82
2024/01/10 01:02:51;;;;;;;0.50;0.50;;;-5.20;99.90;;;;;;5021059;28;20207;-82
2024/01/10 01:05:18;;;;;;;0.50;0.50;;;-5.20;99.90;;;;;;5013015;28;20220;-82
2024/01/10 01:07:44;;;;;;;0.50;0.50;;;-5.30;99.90;;;;;;5020983;28;20192;-83
2024/01/10 01:10:11;;;;;;;4.00;3.33;;;-5.30;99.90;;;;;;5020935;28;20203;-83
2024/01/10 01:12:39;;;;;;;0.50;0.50;;;-5.30;99.90;;;;;;5024760;28;20205;-82
2024/01/10 01:15:06;;;;;;;0.50;0.50;;;-5.30;99.90;;;;;;5026411;28;20227;-82
2024/01/10 01:17:35;;;;;;;0.50;0.50;;;-5.30;99.90;;;;;;5030325;28;20670;-82
2024/01/10 01:20:04;;;;;;;0.50;0.50;;;-5.30;99.90;;;;;;5024713;28;20278;-81
2024/01/10 01:22:31;;;;;;;1.27;1.20;;;-5.30;99.90;;;;;;5027494;28;20210;-83
2024/01/10 01:24:58;;;;;;;1.92;1.85;;;-5.30;99.90;;;;;;5026872;28;20219;-81
2024/01/10 01:27:24;;;;;;;3.45;1.67;;;-5.30;99.90;;;;;;5028416;28;20655;-82
2024/01/10 01:29:51;;;;;;;0.50;0.40;;;-5.40;99.90;;;;;;5027475;28;20196;-83
2024/01/10 01:32:18;;;;;;;1.80;1.70;;;-5.40;99.90;;;;;;5018788;28;20206;-82
2024/01/10 01:34:46;;;;;;;0.50;0.43;;;-5.40;99.90;;;;;;5027255;28;20591;-82
2024/01/10 01:37:13;;;;;;;0.50;0.50;;;-5.40;99.90;;;;;;5024014;28;20689;-82
2024/01/10 01:39:39;;;;;;;0.50;0.50;;;-5.40;99.90;;;;;;5023597;28;20238;-82
2024/01/10 01:42:06;;;;;;;0.50;0.50;;;-5.40;99.90;;;;;;5031541;28;20208;-82
2024/01/10 01:44:33;;;;;;;0.60;0.60;;;-5.40;99.90;;;;;;5024028;28;20196;-82
2024/01/10 01:47:00;;;;;;;0.50;0.50;;;-5.50;99.90;;;;;;5023914;28;20231;-82
2024/01/10 01:49:27;;;;;;;0.50;0.50;;;-5.50;99.90;;;;;;5026692;28;20233;-82
2024/01/10 01:51:55;;;;;;;0.50;0.50;;;-5.60;99.90;;;;;;5026990;28;20207;-82
2024/01/10 01:54:22;;;;;;;0.50;0.40;;;-5.60;99.90;;;;;;5015464;28;20567;-82
2024/01/10 01:56:50;;;;;;;0.60;0.60;;;-5.70;99.90;;;;;;5023303;28;20232;-79
2024/01/10 01:59:17;;;;;;;0.50;0.50;;;-5.60;99.90;;;;;;5022769;28;20695;-81
2024/01/10 02:01:44;;;;;;;0.50;0.50;;;-5.70;99.90;;;;;;5021464;28;20200;-81
2024/01/10 02:04:11;;;;;;;0.77;0.77;;;-5.70;99.90;;;;;;5024379;28;20207;-81
2024/01/10 02:06:38;;;;;;;1.35;1.25;;;-5.60;99.90;;;;;;5022611;28;20592;-81
2024/01/10 02:09:06;;;;;;;1.48;1.38;;;-5.60;99.90;;;;;;5023574;28;20197;-81
2024/01/10 02:11:33;;;;;;;1.30;1.30;;;-5.70;99.90;;;;;;5026616;28;20199;-82
2024/01/10 02:14:00;;;;;;;0.50;0.50;;;-5.70;99.90;;;;;;5026422;28;20206;-79
2024/01/10 02:16:26;;;;;;;0.50;0.50;;;-5.70;99.90;;;;;;5026734;28;20223;-82
2024/01/10 02:18:53;;;;;;;0.50;0.50;;;-5.70;99.90;;;;;;5026207;28;20219;-82
2024/01/10 02:21:21;;;;;;;0.50;0.50;;;-5.70;99.90;;;;;;5018359;28;20202;-81
2024/01/10 02:23:48;;;;;;;1.17;1.15;;;-5.70;99.90;;;;;;5025384;28;20207;-81
2024/01/10 02:26:17;;;;;;;0.50;0.50;;;-5.70;99.90;;;;;;5024134;28;20224;-81
2024/01/10 02:28:43;;;;;;;3.30;2.85;;;-5.80;99.90;;;;;;5023501;28;20211;-83
2024/01/10 02:31:10;;;;;;;0.50;0.50;;;-5.70;99.90;;;;;;5024599;28;20204;-81
2024/01/10 02:33:37;;;;;;;0.50;0.50;;;-5.80;99.90;;;;;;5026543;28;20195;-83
2024/01/10 02:36:04;;;;;;;0.75;0.75;;;-5.80;99.90;;;;;;5033828;28;20215;-80
2024/01/10 02:38:31;;;;;;;1.65;1.55;;;-5.80;99.90;;;;;;5024585;28;20193;-79
2024/01/10 02:40:58;;;;;;;1.17;1.17;;;-5.80;99.90;;;;;;5024066;28;20299;-83
2024/01/10 02:43:26;;;;;;;0.50;0.50;;;-5.80;99.90;;;;;;5027225;28;20200;-83
2024/01/10 02:45:53;;;;;;;0.50;0.50;;;-5.90;99.90;;;;;;5027707;28;20223;-83
2024/01/10 02:48:19;;;;;;;0.50;0.50;;;-5.90;99.90;;;;;;5019416;28;20196;-83
2024/01/10 02:50:46;;;;;;;0.50;0.50;;;-5.90;99.90;;;;;;5027545;28;20196;-83
2024/01/10 02:53:13;;;;;;;0.50;0.50;;;-6.00;99.90;;;;;;5025172;28;20192;-84
2024/01/10 02:55:40;;;;;;;0.50;0.50;;;-6.00;99.90;;;;;;5023437;28;20216;-83
2024/01/10 02:58:07;;;;;;;0.50;0.50;;;-6.10;99.90;;;;;;5023632;28;20663;-83
2024/01/10 03:00:35;;;;;;;0.65;0.63;;;-6.10;99.90;;;;;;5026701;28;20219;-81
2024/01/10 03:03:01;;;;;;;0.50;0.50;;;-6.20;99.90;;;;;;5028374;28;20199;-83
2024/01/10 03:05:28;;;;;;;1.55;1.30;;;-6.20;99.90;;;;;;5017984;28;20227;-84
2024/01/10 03:07:55;;;;;;;2.35;2.25;;;-6.20;99.90;;;;;;5019064;28;20204;-82
2024/01/10 03:10:21;;;;;;;0.50;0.50;;;-6.20;99.90;;;;;;5030041;28;20196;-83
2024/01/10 03:12:48;;;;;;;7.80;1.73;;;-6.20;99.90;;;;;;5024078;28;20215;-82
2024/01/10 03:15:15;;;;;;;1.02;1.02;;;-6.30;99.90;;;;;;5014728;28;20227;-82
2024/01/10 03:17:43;;;;;;;0.60;0.60;;;-6.20;99.90;;;;;;5019833;28;20202;-81
2024/01/10 03:20:11;;;;;;;0.50;0.50;;;-6.20;99.90;;;;;;5023996;28;20215;-82
2024/01/10 03:22:38;;;;;;;0.50;0.40;;;-6.20;99.90;;;;;;5021243;28;20200;-82
2024/01/10 03:25:05;;;;;;;0.50;0.50;;;-6.30;99.90;;;;;;5022066;28;20563;-81
2024/01/10 03:27:32;;;;;;;0.50;0.50;;;-6.30;99.90;;;;;;5012545;28;20199;-83
2024/01/10 03:29:59;;;;;;;0.50;0.47;;;-6.30;99.90;;;;;;5035052;28;20659;-82
2024/01/10 03:32:25;;;;;;;0.50;0.50;;;-6.30;99.90;;;;;;5018550;28;20200;-80
2024/01/10 03:34:54;;;;;;;0.50;0.40;;;-6.30;99.90;;;;;;5025800;28;20204;-82
2024/01/10 03:37:20;;;;;;;0.50;0.50;;;-6.30;99.90;;;;;;5023752;28;20230;-82
2024/01/10 03:39:47;;;;;;;1.42;1.42;;;-6.40;99.90;;;;;;5022957;28;20355;-81
2024/01/10 03:42:15;;;;;;;0.50;0.40;;;-6.40;99.90;;;;;;5024167;28;20576;-83
2024/01/10 03:44:42;;;;;;;0.50;0.50;;;-6.40;99.90;;;;;;5026842;28;20215;-82
2024/01/10 03:47:09;;;;;;;0.60;0.60;;;-6.40;99.90;;;;;;5037591;28;20230;-80
2024/01/10 03:49:35;;;;;;;1.50;1.45;;;-6.40;99.90;;;;;;5033512;28;20214;-82
2024/01/10 03:52:04;;;;;;;0.50;0.43;;;-6.40;99.90;;;;;;5027665;28;20197;-83
2024/01/10 03:54:31;;;;;;;0.50;0.50;;;-6.40;99.90;;;;;;5024754;28;20193;-82
2024/01/10 03:56:58;;;;;;;0.65;0.65;;;-6.40;99.90;;;;;;5023058;28;20315;-82
2024/01/10 03:59:24;;;;;;;0.50;0.50;;;-6.40;99.90;;;;;;5022839;28;20216;-80
2024/01/10 04:01:51;;;;;;;0.50;0.50;;;-6.50;99.90;;;;;;5023893;28;20218;-83
2024/01/10 04:04:18;;;;;;;0.65;0.65;;;-6.50;99.90;;;;;;5025120;28;20291;-82
2024/01/10 04:06:46;;;;;;;0.50;0.50;;;-6.50;99.90;;;;;;5022474;28;20216;-82
2024/01/10 04:09:14;;;;;;;0.50;0.50;;;-6.40;99.90;;;;;;5023204;28;20227;-81
2024/01/10 04:11:41;;;;;;;0.60;0.60;;;-6.50;99.90;;;;;;5020970;28;20222;-81
2024/01/10 04:14:07;;;;;;;2.30;2.20;;;-6.40;99.90;;;;;;5021304;28;20215;-80
2024/01/10 04:16:34;;;;;;;0.80;0.80;;;-6.50;99.90;;;;;;5021275;28;20222;-81
2024/01/10 04:19:01;;;;;;;1.77;1.70;;;-6.40;99.90;;;;;;5021708;28;20208;-81
2024/01/10 04:21:27;;;;;;;0.60;0.50;;;-6.50;99.90;;;;;;5023802;28;20569;-81
2024/01/10 04:23:54;;;;;;;0.73;0.73;;;-6.50;99.90;;;;;;5025402;28;20574;-80
2024/01/10 04:26:22;;;;;;;0.88;0.88;;;-6.60;99.90;;;;;;5024211;28;20220;-81
2024/01/10 04:28:49;;;;;;;1.23;1.13;;;-6.60;99.90;;;;;;5022357;28;20212;-80
2024/01/10 04:31:16;;;;;;;6.40;5.97;;;-6.60;99.90;;;;;;5022400;28;20204;-80
2024/01/10 04:33:42;;;;;;;0.50;0.50;;;-6.50;99.90;;;;;;5025342;28;20195;-81
2024/01/10 04:36:09;;;;;;;1.67;1.58;;;-6.50;99.90;;;;;;5024232;28;20227;-79
2024/01/10 04:38:36;;;;;;;0.50;0.50;;;-6.50;99.90;;;;;;5026178;28;20196;-79
2024/01/10 04:41:03;;;;;;;0.60;0.60;;;-6.60;99.90;;;;;;5024235;28;20220;-79
2024/01/10 04:43:31;;;;;;;1.52;1.40;;;-6.50;99.90;;;;;;5021930;28;20211;-78
2024/01/10 04:45:57;;;;;;;0.50;0.50;;;-6.60;99.90;;;;;;5021665;28;20602;-79
2024/01/10 04:48:24;;;;;;;0.50;0.50;;;-6.60;99.90;;;;;;5026681;28;20208;-80
2024/01/10 04:50:51;;;;;;;0.50;0.40;;;-6.50;99.90;;;;;;5027931;28;20204;-82
2024/01/10 04:53:18;;;;;;;1.77;1.67;;;-6.50;99.90;;;;;;5027237;28;20265;-79
2024/01/10 04:55:45;;;;;;;0.50;0.50;;;-6.50;99.90;;;;;;5024488;28;20235;-80
2024/01/10 04:58:12;;;;;;;0.50;0.40;;;-6.50;99.90;;;;;;5024719;28;20200;-80
2024/01/10 05:00:40;;;;;;;0.50;0.50;;;-6.50;99.90;;;;;;5027376;28;20208;-83
2024/01/10 05:03:07;;;;;;;0.50;0.40;;;-6.50;99.90;;;;;;5027269;28;20227;-82
2024/01/10 05:05:34;;;;;;;0.98;0.98;;;-6.50;99.90;;;;;;5024563;28;20719;-82
2024/01/10 05:08:01;;;;;;;0.90;0.70;;;-6.60;99.90;;;;;;5030775;28;20214;-80
2024/01/10 05:10:27;;;;;;;0.95;0.95;;;-6.60;99.90;;;;;;5025421;28;20196;-82
2024/01/10 05:12:55;;;;;;;2.15;1.63;;;-6.50;99.90;;;;;;5024107;28;20211;-81
2024/01/10 05:15:21;;;;;;;0.50;0.50;;;-6.50;99.90;;;;;;5024706;28;20228;-82
2024/01/10 05:17:49;;;;;;;1.60;1.50;;;-6.50;99.90;;;;;;5027755;28;20200;-82
2024/01/10 05:20:16;;;;;;;0.50;0.50;;;-6.50;99.90;;;;;;5026755;28;20242;-80
2024/01/10 05:22:44;;;;;;;30.25;2.35;;;-6.50;99.90;;;;;;5027199;28;20211;-80
2024/01/10 05:25:10;;;;;;;0.50;0.50;;;-6.40;99.90;;;;;;5027028;28;20216;-79
2024/01/10 05:27:37;;;;;;;0.65;0.65;;;-6.40;99.90;;;;;;5023988;28;20205;-80
2024/01/10 05:30:04;;;;;;;2.25;2.15;;;-6.30;99.90;;;;;;5022056;28;20206;-81
2024/01/10 05:32:31;;;;;;;1.15;1.02;;;-6.30;99.90;;;;;;5025136;28;20210;-80
2024/01/10 05:35:00;;;;;;;2.00;1.35;;;-6.30;99.90;;;;;;5023512;28;20211;-82
2024/01/10 05:37:35;;;;;;;1.63;1.52;;;-6.30;99.90;;;;;;5024958;28;20291;-82
2024/01/10 05:40:03;;;;;;;6.07;5.50;;;-6.30;99.90;;;;;;5016325;28;20299;-81
2024/01/10 05:42:30;;;;;;;0.70;0.70;;;-6.20;99.90;;;;;;5026805;28;20239;-80
2024/01/10 05:44:56;;;;;;;0.70;0.70;;;-6.20;99.90;;;;;;5020526;28;20207;-80
2024/01/10 05:47:23;;;;;;;1.45;1.35;;;-6.20;99.90;;;;;;5018478;28;20200;-80
2024/01/10 05:49:50;;;;;;;2.00;1.15;;;-6.20;99.90;;;;;;5026660;28;20629;-80
2024/01/10 05:52:18;;;;;;;4.53;2.17;;;-6.30;99.90;;;;;;5023802;28;20292;-80
2024/01/10 05:54:45;;;;;;;0.60;0.55;;;-6.30;99.90;;;;;;5015880;28;20254;-79
2024/01/10 05:57:12;;;;;;;0.50;0.40;;;-6.20;99.90;;;;;;5022559;28;20222;-82
2024/01/10 05:59:39;;;;;;;6.78;1.90;;;-6.20;99.90;;;;;;5022900;28;20216;-81
2024/01/10 06:02:06;;;;;;;1.55;1.45;;;-6.30;99.90;;;;;;5022862;28;20200;-82
2024/01/10 06:04:32;;;;;;;0.50;0.50;;;-6.20;99.90;;;;;;5023704;28;20212;-80
2024/01/10 06:07:00;;;;;;;0.68;0.68;;;-6.20;99.90;;;;;;5025780;28;20219;-80
2024/01/10 06:09:28;;;;;;;0.50;0.50;;;-6.20;99.90;;;;;;5026511;28;20220;-81
2024/01/10 06:11:55;;;;;;;2.55;1.40;;;-6.30;99.90;;;;;;5026472;28;20207;-81
2024/01/10 06:14:21;;;;;;;0.50;0.50;;;-6.30;99.90;;;;;;5026401;28;20204;-79
2024/01/10 06:16:48;;;;;;;0.70;0.70;;;-6.30;99.90;;;;;;5026025;28;20215;-81
2024/01/10 06:19:15;;;;;;;0.70;0.70;;;-6.30;99.90;;;;;;5026431;28;20794;-81
2024/01/10 06:21:42;;;;;;;1.45;1.35;;;-6.30;99.90;;;;;;5022432;28;20227;-81
2024/01/10 06:24:09;;;;;;;0.50;0.50;;;-6.30;99.90;;;;;;5022014;28;20205;-81
2024/01/10 06:26:37;;;;;;;1.65;1.55;;;-6.30;99.90;;;;;;5031288;28;20219;-80
2024/01/10 06:29:03;;;;;;;0.50;0.50;;;-6.30;99.90;;;;;;5025688;28;20200;-81
2024/01/10 06:31:30;;;;;;;0.50;0.50;;;-6.40;99.90;;;;;;5028734;28;20291;-81
2024/01/10 06:33:57;;;;;;;0.63;0.63;;;-6.40;99.90;;;;;;5027647;28;20200;-81
2024/01/10 06:36:23;;;;;;;0.50;0.50;;;-6.40;99.90;;;;;;5024923;28;20244;-79
2024/01/10 06:38:50;;;;;;;1.15;1.05;;;-6.40;99.90;;;;;;5025588;28;20543;-82
2024/01/10 06:41:17;;;;;;;0.85;0.85;;;-6.40;99.90;;;;;;5026440;28;20220;-81
2024/01/10 06:43:45;;;;;;;0.60;0.60;;;-6.40;99.90;;;;;;5025198;28;20290;-82
2024/01/10 06:46:12;;;;;;;0.50;0.50;;;-6.30;99.90;;;;;;5025731;28;20220;-82
2024/01/10 06:48:39;;;;;;;2.45;1.48;;;-6.40;99.90;;;;;;5022768;28;20690;-81
2024/01/10 06:51:10;;;;;;;2.67;2.47;;;-6.40;99.90;;;;;;5021491;28;20202;-81
2024/01/10 06:53:37;;;;;;;2.47;1.60;;;-6.40;99.90;;;;;;5028904;28;20196;-82
2024/01/10 06:56:04;;;;;;;0.75;0.75;;;-6.40;99.90;;;;;;5021373;28;20227;-83
2024/01/10 06:58:31;;;;;;;3.28;2.05;;;-6.40;99.90;;;;;;5021800;28;20223;-82
2024/01/10 07:01:00;;;;;;;0.85;0.85;;;-6.50;99.90;;;;;;5027662;28;20222;-80
2024/01/10 07:03:27;;;;;;;0.50;0.50;;;-6.40;99.90;;;;;;5025593;28;20261;-81
2024/01/10 07:05:54;;;;;;;1.02;1.02;;;-6.40;99.90;;;;;;5023577;28;20221;-81
2024/01/10 07:08:20;;;;;;;1.30;0.70;;;-6.40;99.90;;;;;;5028052;28;20659;-82
2024/01/10 07:10:47;;;;;;;3.30;3.17;;;-6.40;99.90;;;;;;5016523;28;20357;-83
2024/01/10 07:13:14;;;;;;;0.50;0.50;;;-6.40;99.90;;;;;;5026438;28;20204;-82
2024/01/10 07:15:41;;;;;;;0.50;0.50;;;-6.30;99.90;;;;;;5022702;28;20235;-82
2024/01/10 07:18:09;;;;;;;0.50;0.50;;;-6.40;99.90;;;;;;5018930;28;20201;-83
2024/01/10 07:20:37;;;;;;;0.70;0.60;;;-6.40;99.90;;;;;;5022219;28;20338;-82
2024/01/10 07:23:04;;;;;;;0.50;0.50;;;-6.40;99.90;;;;;;5024583;28;20219;-81
2024/01/10 07:25:31;;;;;;;0.50;0.50;;;-6.40;99.90;;;;;;5017672;28;20205;-81
2024/01/10 07:27:58;;;;;;;0.50;0.47;;;-6.40;99.90;;;;;;5026754;28;20192;-84
2024/01/10 07:30:25;;;;;;;0.50;0.40;;;-6.40;99.90;;;;;;5026587;28;20242;-82
2024/01/10 07:32:52;;;;;;;0.50;0.50;;;-6.30;99.90;;;;;;5026061;28;20192;-83
2024/01/10 07:35:20;;;;;;;1.10;1.10;;;-6.30;99.90;;;;;;5026931;28;20242;-83
2024/01/10 07:37:47;;;;;;;0.50;0.50;;;-6.30;99.90;;;;;;5023434;28;20203;-83
2024/01/10 07:40:14;;;;;;;0.50;0.50;;;-6.30;99.90;;;;;;5029105;28;20220;-82
2024/01/10 07:42:41;;;;;;;0.50;0.50;;;-6.30;99.90;;;;;;5024825;28;20287;-83
2024/01/10 07:45:08;;;;;;;0.50;0.50;;;-6.30;99.90;;;;;;5023269;28;20690;-83
2024/01/10 07:47:37;;;;;;;0.98;0.50;;;-6.20;99.90;;;;;;5022503;28;20325;-84
2024/01/10 07:50:05;;;;;;;1.02;1.02;;;-6.20;99.90;;;;;;5027097;28;20279;-83
2024/01/10 07:52:34;;;;;;;2.30;2.20;;;-6.20;99.90;;;;;;5025486;28;20663;-83
2024/01/10 07:55:01;;;;;;;1.25;1.25;;;-6.10;99.90;;;;;;5022618;28;20192;-83
2024/01/10 07:57:28;;;;;;;0.50;0.40;;;-6.10;99.90;;;;;;5023746;28;20223;-81
2024/01/10 07:59:55;;;;;;;0.95;0.95;;;-6.10;99.90;;;;;;5021754;28;20197;-83
2024/01/10 08:02:22;;;;;;;3.17;2.28;;;-6.10;99.90;;;;;;5021961;28;20197;-82
2024/01/10 08:04:48;;;;;;;0.60;0.60;;;-6.00;99.90;;;;;;5022298;28;20731;-83
2024/01/10 08:07:15;;;;;;;0.50;0.50;;;-6.00;99.90;;;;;;5026206;28;20220;-82
2024/01/10 08:09:43;;;;;;;2.80;2.65;;;-5.90;99.90;;;;;;5038504;28;20695;-82
2024/01/10 08:12:11;;;;;;;0.50;0.50;;;-5.90;99.90;;;;;;5040495;28;20199;-82
2024/01/10 08:14:38;;;;;;;0.93;0.93;;;-5.80;99.90;;;;;;5038616;28;20199;-82
2024/01/10 08:17:06;;;;;;;0.50;0.50;;;-5.70;99.90;;;;;;5035157;28;20549;-82
2024/01/10 08:19:33;;;;;;;0.50;0.50;;;-5.60;99.90;;;;;;5023532;28;20205;-79
2024/01/10 08:21:59;;;;;;;0.50;0.50;;;-5.60;99.90;;;;;;5027048;28;20214;-84
2024/01/10 08:24:26;;;;;;;2.55;2.35;;;-5.50;99.90;;;;;;5026509;28;20200;-82
2024/01/10 08:26:54;;;;;;;0.57;0.57;;;-5.40;99.90;;;;;;5021238;28;20223;-81
2024/01/10 08:29:21;;;;;;;0.70;0.70;;;-5.10;99.90;;;;;;5031560;28;20200;-83
2024/01/10 08:31:49;;;;;;;0.50;0.50;;;-4.60;99.90;;;;;;5028580;28;20200;-83
2024/01/10 08:34:15;;;;;;;0.50;0.50;;;-3.70;99.90;;;;;;5040439;28;20195;-84
2024/01/10 08:36:42;;;;;;;0.60;0.60;;;-3.00;99.90;;;;;;5031482;28;20216;-84
2024/01/10 08:39:11;;;;;;;2.17;2.08;;;-2.50;99.90;;;;;;5026820;28;20196;-84
2024/01/10 08:41:42;;;;;;;0.50;0.50;;;-2.30;99.90;;;;;;5026903;28;20216;-84
2024/01/10 08:44:11;;;;;;;0.60;0.60;;;-2.10;99.90;;;;;;5026707;28;20203;-82
2024/01/10 08:46:38;;;;;;;2.38;1.40;;;-1.90;99.90;;;;;;5026255;28;20220;-84
2024/01/10 08:49:04;;;;;;;6.68;4.30;;;-2.00;99.90;;;;;;5029173;28;20203;-84
2024/01/10 08:51:31;;;;;;;0.50;0.50;;;-2.20;99.90;;;;;;5028935;28;20207;-84
2024/01/10 08:53:58;;;;;;;0.60;0.50;;;-2.40;99.90;;;;;;5025948;28;20204;-83
2024/01/10 08:56:25;;;;;;;1.02;1.02;;;-2.10;99.90;;;;;;5025768;28;20227;-84
2024/01/10 08:58:52;;;;;;;2.20;1.75;;;-1.50;99.90;;;;;;5025158;28;20279;-84
2024/01/10 09:01:21;;;;;;;1.77;1.70;;;-0.70;99.90;;;;;;5026220;28;20213;-84
2024/01/10 09:03:48;;;;;;;2.75;2.00;;;-0.10;99.90;;;;;;5025588;28;20204;-84
2024/01/10 09:06:16;;;;;;;77.82;5.72;;;0.60;99.90;;;;;;5035401;28;20251;-82
2024/01/10 09:08:43;;;;;;;0.70;0.70;;;0.80;98.50;;;;;;5037656;28;20197;-83
2024/01/10 09:11:10;;;;;;;2.15;1.38;;;1.00;96.20;;;;;;5036437;28;20194;-83
2024/01/10 09:13:37;;;;;;;0.52;0.52;;;0.80;94.20;;;;;;5022598;28;20227;-83
2024/01/10 09:16:05;;;;;;;0.73;0.73;;;0.80;93.50;;;;;;5017885;28;20216;-83
2024/01/10 09:18:33;;;;;;;0.95;0.95;;;1.00;91.90;;;;;;5025437;28;20670;-84
2024/01/10 09:21:00;;;;;;;1.08;1.08;;;1.00;91.70;;;;;;5028309;28;20298;-80
2024/01/10 09:23:27;;;;;;;0.60;0.60;;;1.30;91.60;;;;;;5028724;28;20196;-84
2024/01/10 09:25:54;;;;;;;1.63;1.17;;;2.00;91.60;;;;;;5026313;28;20220;-81
2024/01/10 09:28:21;;;;;;;1.70;1.60;;;2.00;87.60;;;;;;5025174;28;20204;-83
2024/01/10 09:30:48;;;;;;;1.02;1.02;;;2.10;87.60;;;;;;5026789;28;20196;-84
2024/01/10 09:33:15;;;;;;;1.33;1.27;;;2.10;86.80;;;;;;5028831;28;20246;-84
2024/01/10 09:35:43;;;;;;;14.15;3.05;;;1.90;85.20;;;;;;5028387;28;20218;-84
2024/01/10 09:38:10;;;;;;;1.58;1.48;;;2.20;87.40;;;;;;5029650;28;20571;-84
2024/01/10 09:40:37;;;;;;;0.93;0.63;;;2.50;85.90;;;;;;5028217;28;20236;-84
2024/01/10 09:43:07;;;;;;;4.65;1.88;;;2.80;83.30;;;;;;5025103;28;20270;-82
2024/01/10 09:45:36;;;;;;;0.77;0.77;;;2.60;79.70;;;;;;5025215;28;20221;-82
2024/01/10 09:48:03;;;;;;;0.90;0.57;;;1.90;80.90;;;;;;5028313;28;20200;-83
2024/01/10 09:50:31;;;;;;;3.60;2.65;;;1.60;82.50;;;;;;5028402;28;20660;-84
2024/01/10 09:53:06;;;;;;;4.00;2.25;;;1.30;82.60;;;;;;5025010;28;20250;-83
2024/01/10 09:55:36;;;;;;;4.78;3.72;;;0.80;83.00;;;;;;5024418;28;20322;-84
2024/01/10 09:58:04;;;;;;;4.53;2.83;;;0.40;85.20;;;;;;5027764;28;20200;-84
2024/01/10 10:00:32;;;;;;;1.65;1.55;;;0.10;87.10;;;;;;5028619;28;20250;-82
2024/01/10 10:03:00;;;;;;;1.58;0.90;;;0.20;89.40;;;;;;5019663;28;20206;-84
2024/01/10 10:05:29;;;;;;;0.60;0.60;;;0.20;88.90;;;;;;5027690;28;20216;-84
2024/01/10 10:07:57;;;;;;;0.85;0.85;;;0.00;89.90;;;;;;5023894;28;20211;-81
2024/01/10 10:10:26;;;;;;;2.38;2.05;;;0.20;91.70;;;;;;5028454;28;20200;-83
2024/01/10 10:12:54;;;;;;;1.05;1.05;;;0.10;89.10;;;;;;5027228;28;20200;-84
2024/01/10 10:15:22;;;;;;;2.10;2.00;;;0.00;89.60;;;;;;5027534;28;20281;-83
2024/01/10 10:17:50;;;;;;;5.10;2.47;;;0.10;90.90;;;;;;5026311;28;20274;-82
2024/01/10 10:20:21;;;;;;;4.28;3.17;;;0.30;91.00;;;;;;5023715;28;20196;-83
2024/01/10 10:23:00;;;;;;;5.40;2.75;;;0.50;90.60;;;;;;5024131;28;20236;-84
2024/01/10 10:25:31;;;;;;;1.00;0.90;;;1.00;90.10;;;;;;5026980;28;20551;-84
2024/01/10 10:27:58;;;;;;;3.90;3.70;;;1.50;88.60;;;;;;5024925;28;20200;-83
2024/01/10 10:30:25;;;;;;;1.20;1.10;;;1.90;84.90;;;;;;5020708;28;20670;-83
2024/01/10 10:32:53;;;;;;;2.97;0.93;;;2.20;82.40;;;;;;5026876;28;20224;-84
2024/01/10 10:35:20;;;;;;;0.80;0.80;;;2.00;80.20;;;;;;5027236;28;20212;-84
2024/01/10 10:37:47;;;;;;;0.50;0.40;;;1.80;80.80;;;;;;5026967;28;20627;-84
2024/01/10 10:40:14;;;;;;;2.55;1.70;;;2.00;83.40;;;;;;5027242;28;20209;-84
2024/01/10 10:42:46;;;;;;;1.20;1.17;;;2.40;84.60;;;;;;5026498;28;20614;-84
2024/01/10 10:45:16;;;;;;;2.72;1.23;;;2.70;80.60;;;;;;5015025;28;20274;-84
2024/01/10 10:47:45;;;;;;;1.50;1.40;;;2.90;78.20;;;;;;5024262;28;20202;-84
2024/01/10 10:50:14;;;;;;;2.15;1.35;;;3.30;76.00;;;;;;5026473;28;20192;-83
2024/01/10 10:52:46;;;;;;;3.42;3.22;;;3.90;73.70;;;;;;5026396;28;20195;-85
2024/01/10 10:55:15;;;;;;;2.72;2.55;;;3.90;71.40;;;;;;5020028;28;20215;-84
2024/01/10 10:57:45;;;;;;;0.60;0.60;;;4.00;70.40;;;;;;5027233;28;20299;-84
2024/01/10 11:00:15;;;;;;;8.43;4.63;;;4.40;71.20;;;;;;5019102;28;20199;-84
2024/01/10 11:02:42;;;;;;;1.30;1.30;;;4.80;69.40;;;;;;5020261;28;20651;-84
2024/01/10 11:05:10;;;;;;;2.60;2.50;;;4.80;70.00;;;;;;5018014;28;20562;-83
2024/01/10 11:07:37;;;;;;;0.70;0.70;;;4.90;69.20;;;;;;5027654;28;20196;-84
2024/01/10 11:10:10;;;;;;;2.03;1.92;;;4.60;68.80;;;;;;5024254;28;20196;-84
2024/01/10 11:12:55;;;;;;;3.42;3.22;;;4.00;66.60;;;;;;5027613;28;20208;-84
2024/01/10 11:15:40;;;;;;;3.35;3.22;;;3.80;68.30;;;;;;5026781;28;20634;-84
2024/01/10 11:18:17;;;;;;;0.50;0.45;;;3.70;69.60;;;;;;5025308;28;20197;-83
2024/01/10 11:20:58;;;;;;;0.52;0.52;;;4.10;70.20;;;;;;5025533;28;20206;-84
2024/01/10 11:23:41;;;;;;;0.93;0.93;;;4.70;69.10;;;;;;5015640;28;20194;-84
2024/01/10 11:26:09;;;;;;;1.60;1.10;;;4.80;66.20;;;;;;5024407;28;20224;-84
2024/01/10 11:28:38;;;;;;;2.28;2.17;;;4.30;64.30;;;;;;5019827;28;20208;-84
2024/01/10 11:31:07;;;;;;;1.58;1.48;;;3.60;66.30;;;;;;5023730;28;20196;-83
2024/01/10 11:33:36;;;;;;;2.08;1.88;;;3.20;67.60;;;;;;5025992;28;20199;-84
2024/01/10 11:36:24;;;;;;;0.77;0.77;;;3.20;72.00;;;;;;5024106;28;20215;-84
2024/01/10 11:38:56;;;;;;;1.70;1.60;;;3.30;74.00;;;;;;5026414;28;20200;-79
2024/01/10 11:41:24;;;;;;;2.25;1.70;;;3.30;71.90;;;;;;5029664;28;20223;-84
2024/01/10 11:44:30;;;;;;;8.20;7.65;;;3.30;72.80;;;;;;5026179;28;20197;-81
2024/01/10 11:46:58;;;;;;;0.50;0.50;;;3.70;70.00;;;;;;5022894;28;20231;-81
2024/01/10 11:49:25;;;;;;;0.98;0.98;;;3.70;68.80;;;;;;5025490;28;20219;-84
2024/01/10 11:51:56;;;;;;;10.18;1.30;;;3.70;68.40;;;;;;5025170;28;20231;-81
2024/01/10 11:54:43;;;;;;;0.60;0.60;;;3.80;67.30;;;;;;5026057;28;20204;-84
2024/01/10 11:57:11;;;;;;;1.05;1.05;;;4.40;66.90;;;;;;5025962;28;20220;-84
2024/01/10 11:59:41;;;;;;;3.55;2.25;;;5.30;65.60;;;;;;5027026;28;20199;-84
2024/01/10 12:02:09;;;;;;;1.88;1.77;;;5.90;63.00;;;;;;5023559;28;20216;-84
2024/01/10 12:04:35;;;;;;;0.88;0.88;;;6.50;65.10;;;;;;5024882;28;20208;-82
2024/01/10 12:07:03;;;;;;;0.70;0.60;;;7.20;62.60;;;;;;5017029;28;20220;-84
2024/01/10 12:09:31;;;;;;;1.10;1.10;;;7.60;59.50;;;;;;5059956;22;20242;-82
2024/01/10 12:11:57;;;;;;;0.50;0.50;;;7.90;57.60;;;;;;5053372;28;20196;-81
2024/01/10 12:14:25;;;;;;;2.67;2.58;;;7.70;56.50;;;;;;5054745;28;20199;-82
2024/01/10 12:16:53;;;;;;;0.55;0.55;;;7.50;56.80;;;;;;5045241;28;20298;-81
2024/01/10 12:19:20;;;;;;;0.50;0.40;;;7.40;57.10;;;;;;5036645;28;20226;-82
2024/01/10 12:21:47;;;;;;;0.50;0.40;;;7.20;56.30;;;;;;5052221;28;20215;-81
2024/01/10 12:24:14;;;;;;;2.80;2.10;;;6.90;56.20;;;;;;5056692;28;20887;-80
2024/01/10 12:26:45;;;;;;;1.33;0.77;;;6.40;56.20;;;;;;5059315;28;20214;-80
2024/01/10 12:29:12;;;;;;;0.63;0.63;;;6.00;57.10;;;;;;5047927;28;20219;-81
2024/01/10 12:31:39;;;;;;;3.20;2.95;;;5.70;57.50;;;;;;5058369;28;20191;-81
2024/01/10 12:34:10;;;;;;;0.50;0.50;;;5.50;57.90;;;;;;5048430;28;20206;-81
2024/01/10 12:36:37;;;;;;;0.60;0.60;;;5.20;58.50;;;;;;5053578;28;20199;-83
2024/01/10 12:39:06;;;;;;;2.20;2.00;;;4.70;59.30;;;;;;5053272;28;20220;-81
2024/01/10 12:41:33;;;;;;;3.90;1.92;;;4.30;61.00;;;;;;5050811;28;20214;-83
2024/01/10 12:44:03;;;;;;;10.52;1.90;;;3.90;61.30;;;;;;5055896;28;20230;-82
2024/01/10 12:46:31;;;;;;;0.90;0.90;;;3.70;62.30;;;;;;5050895;28;20226;-85
2024/01/10 12:49:02;;;;;;;0.50;0.50;;;3.40;63.60;;;;;;5064099;28;20225;-82
2024/01/10 12:51:31;;;;;;;1.10;1.10;;;3.40;64.90;;;;;;5054247;28;20264;-81
2024/01/10 12:53:59;;;;;;;2.88;0.98;;;3.40;66.70;;;;;;5061313;28;20203;-81